Time;durP1;ratioP1;P1;durP2;ratioP2;P2;SDS_P1;SDS_P2;PMS_P1;PMS_P2;Temp;Humidity;BMP_temperature;BMP_pressure;BME280_temperature;BME280_humidity;BME280_pressure;Samples;Min_cycle;Max_cycle;Signal;HPM_P1;HPM_P2
2022/08/14 00:00:17;;;;;;;4.25;3.70;;;;;;;;;;5011367;28;20030;-74
2022/08/14 00:02:44;;;;;;;3.25;3.05;;;;;;;;;;5010838;28;20128;-75
2022/08/14 00:05:12;;;;;;;3.70;3.22;;;;;;;;;;5010855;28;20037;-74
2022/08/14 00:07:37;;;;;;;5.80;3.38;;;;;;;;;;5010241;28;20091;-74
2022/08/14 00:10:06;;;;;;;3.85;3.45;;;;;;;;;;5010470;28;20276;-74
2022/08/14 00:12:33;;;;;;;4.75;3.78;;;;;;;;;;5010271;28;20048;-74
2022/08/14 00:14:58;;;;;;;3.95;3.63;;;;;;;;;;5010456;28;20045;-75
2022/08/14 00:17:25;;;;;;;4.20;3.80;;;;;;;;;;5017873;28;20495;-74
2022/08/14 00:19:51;;;;;;;4.07;3.63;;;;;;;;;;5019958;28;20424;-75
2022/08/14 00:22:17;;;;;;;4.07;3.63;;;;;;;;;;5018274;28;20018;-74
2022/08/14 00:24:44;;;;;;;5.55;3.90;;;;;;;;;;5010261;28;20572;-74
2022/08/14 00:27:09;;;;;;;4.63;3.70;;;;;;;;;;5011751;28;20017;-75
2022/08/14 00:29:35;;;;;;;4.30;3.90;;;;;;;;;;5009747;28;20053;-73
2022/08/14 00:32:00;;;;;;;3.78;3.47;;;;;;;;;;5020098;28;20105;-74
2022/08/14 00:34:25;;;;;;;5.82;4.20;;;;;;;;;;5018828;28;20519;-73
2022/08/14 00:36:51;;;;;;;4.63;4.18;;;;;;;;;;5020170;28;20032;-73
2022/08/14 00:39:16;;;;;;;4.85;4.20;;;;;;;;;;5019180;28;20626;-74
2022/08/14 00:41:42;;;;;;;4.47;3.95;;;;;;;;;;5018565;28;20029;-74
2022/08/14 00:44:07;;;;;;;5.03;3.97;;;;;;;;;;5020091;28;20603;-74
2022/08/14 00:46:33;;;;;;;4.18;3.88;;;;;;;;;;5027017;28;20026;-74
2022/08/14 00:48:58;;;;;;;5.60;4.72;;;;;;;;;;5029647;28;20026;-74
2022/08/14 00:51:24;;;;;;;4.90;4.38;;;;;;;;;;5017102;28;20091;-74
2022/08/14 00:53:49;;;;;;;4.05;3.70;;;;;;;;;;5029412;28;20053;-74
2022/08/14 00:56:15;;;;;;;3.60;3.30;;;;;;;;;;5029191;28;20037;-74
2022/08/14 00:58:41;;;;;;;3.78;3.40;;;;;;;;;;5029173;28;20029;-74
2022/08/14 01:01:08;;;;;;;3.63;3.33;;;;;;;;;;5028960;28;20112;-74
2022/08/14 01:03:36;;;;;;;4.00;3.60;;;;;;;;;;5029637;28;20112;-74
2022/08/14 01:06:02;;;;;;;4.32;3.67;;;;;;;;;;5028870;28;20025;-74
2022/08/14 01:08:29;;;;;;;4.38;3.60;;;;;;;;;;5029054;28;20654;-73
2022/08/14 01:10:56;;;;;;;3.85;3.55;;;;;;;;;;5028813;28;20020;-74
2022/08/14 01:13:25;;;;;;;4.43;3.40;;;;;;;;;;5028805;28;20475;-75
2022/08/14 01:15:54;;;;;;;4.10;3.80;;;;;;;;;;5028750;28;20033;-75
2022/08/14 01:21:08;;;;;;;6.50;3.88;;;;;;;;;;5028730;28;20402;-74
2022/08/14 01:23:35;;;;;;;7.00;4.25;;;;;;;;;;5028963;28;20384;-74
2022/08/14 01:26:01;;;;;;;3.95;3.60;;;;;;;;;;5028946;28;20029;-74
2022/08/14 01:28:26;;;;;;;4.80;3.75;;;;;;;;;;5028909;28;20059;-74
2022/08/14 01:30:56;;;;;;;4.70;3.70;;;;;;;;;;5028908;28;20036;-74
2022/08/14 01:33:28;;;;;;;6.80;4.07;;;;;;;;;;5029241;28;20025;-74
2022/08/14 01:35:59;;;;;;;7.27;4.07;;;;;;;;;;5028628;28;20049;-74
2022/08/14 01:38:30;;;;;;;4.53;4.13;;;;;;;;;;5028664;28;20308;-73
2022/08/14 01:40:56;;;;;;;4.72;4.03;;;;;;;;;;5028688;28;20041;-74
2022/08/14 01:43:21;;;;;;;4.55;4.15;;;;;;;;;;5029280;28;20037;-74
2022/08/14 01:45:52;;;;;;;5.25;4.43;;;;;;;;;;5028728;28;20447;-73
2022/08/14 01:48:17;;;;;;;4.43;4.10;;;;;;;;;;5028625;28;20025;-74
2022/08/14 01:50:42;;;;;;;4.65;4.25;;;;;;;;;;5028743;28;20013;-74
2022/08/14 01:53:08;;;;;;;4.38;4.00;;;;;;;;;;5028787;28;20483;-74
2022/08/14 01:55:37;;;;;;;4.40;3.92;;;;;;;;;;5028662;28;20096;-74
2022/08/14 01:58:02;;;;;;;5.03;4.47;;;;;;;;;;5028771;28;20037;-74
2022/08/14 02:00:28;;;;;;;4.63;4.22;;;;;;;;;;5028050;28;20037;-74
2022/08/14 02:02:55;;;;;;;4.45;4.05;;;;;;;;;;5028921;28;20033;-75
2022/08/14 02:05:28;;;;;;;4.57;4.18;;;;;;;;;;5028672;28;20029;-75
2022/08/14 02:07:54;;;;;;;4.82;4.40;;;;;;;;;;5028518;28;20100;-75
2022/08/14 02:10:20;;;;;;;4.93;4.00;;;;;;;;;;5028249;28;20022;-74
2022/08/14 02:12:46;;;;;;;4.30;3.90;;;;;;;;;;5028462;28;20047;-74
2022/08/14 02:15:11;;;;;;;7.30;4.05;;;;;;;;;;5028365;28;20037;-74
2022/08/14 02:17:37;;;;;;;5.82;4.00;;;;;;;;;;5028430;28;20032;-75
2022/08/14 02:20:06;;;;;;;4.10;3.70;;;;;;;;;;5027524;28;20557;-74
2022/08/14 02:22:31;;;;;;;4.82;4.13;;;;;;;;;;5027777;28;20021;-75
2022/08/14 02:24:57;;;;;;;4.82;4.00;;;;;;;;;;5028006;28;20040;-74
2022/08/14 02:27:22;;;;;;;4.32;3.95;;;;;;;;;;5028087;28;20112;-74
2022/08/14 02:29:47;;;;;;;5.78;3.90;;;;;;;;;;5027743;28;20121;-74
2022/08/14 02:32:15;;;;;;;5.00;3.92;;;;;;;;;;5027867;28;20083;-74
2022/08/14 02:34:41;;;;;;;4.18;3.80;;;;;;;;;;5027788;28;20099;-75
2022/08/14 02:37:09;;;;;;;5.05;4.03;;;;;;;;;;5027922;28;20021;-75
2022/08/14 02:39:41;;;;;;;7.78;4.25;;;;;;;;;;5027781;28;20491;-75
2022/08/14 02:42:11;;;;;;;4.70;4.07;;;;;;;;;;5027968;28;20025;-74
2022/08/14 02:44:38;;;;;;;4.40;4.00;;;;;;;;;;5028012;28;20108;-75
2022/08/14 02:47:04;;;;;;;4.50;4.10;;;;;;;;;;5027773;28;20025;-74
2022/08/14 02:49:29;;;;;;;4.63;4.22;;;;;;;;;;5029507;28;20033;-75
2022/08/14 02:51:56;;;;;;;4.40;4.00;;;;;;;;;;5031854;28;20033;-75
2022/08/14 02:54:23;;;;;;;4.43;3.97;;;;;;;;;;5031690;28;20394;-75
2022/08/14 02:56:56;;;;;;;5.65;3.78;;;;;;;;;;5031452;28;20022;-74
2022/08/14 02:59:23;;;;;;;4.85;4.35;;;;;;;;;;5031591;28;20021;-74
2022/08/14 03:01:49;;;;;;;4.68;4.30;;;;;;;;;;5030953;28;20057;-75
2022/08/14 03:04:15;;;;;;;5.65;4.03;;;;;;;;;;5031646;28;20028;-74
2022/08/14 03:06:42;;;;;;;4.65;4.20;;;;;;;;;;5031106;28;20033;-74
2022/08/14 03:09:08;;;;;;;4.80;4.40;;;;;;;;;;5031457;28;20021;-74
2022/08/14 03:11:34;;;;;;;5.18;4.68;;;;;;;;;;5030965;28;20038;-74
2022/08/14 03:14:00;;;;;;;4.47;4.18;;;;;;;;;;5031286;28;20075;-73
2022/08/14 03:16:26;;;;;;;4.78;4.38;;;;;;;;;;5031732;28;20475;-74
2022/08/14 03:18:57;;;;;;;5.72;4.57;;;;;;;;;;5031274;28;20026;-74
2022/08/14 03:21:23;;;;;;;4.38;3.97;;;;;;;;;;5031103;28;20021;-73
2022/08/14 03:23:56;;;;;;;6.78;4.50;;;;;;;;;;5031340;28;20056;-73
2022/08/14 03:26:23;;;;;;;4.97;4.53;;;;;;;;;;5031021;28;20079;-74
2022/08/14 03:28:50;;;;;;;5.22;4.72;;;;;;;;;;5030794;28;20021;-74
2022/08/14 03:31:20;;;;;;;5.03;4.50;;;;;;;;;;5030682;28;20470;-75
2022/08/14 03:33:46;;;;;;;5.20;4.80;;;;;;;;;;5030997;28;20103;-74
2022/08/14 03:36:13;;;;;;;5.07;4.57;;;;;;;;;;5030992;28;20029;-74
2022/08/14 03:38:41;;;;;;;5.07;4.47;;;;;;;;;;5031277;28;20383;-74
2022/08/14 03:41:15;;;;;;;8.05;4.60;;;;;;;;;;5030525;28;20025;-72
2022/08/14 03:43:44;;;;;;;5.40;4.60;;;;;;;;;;5030764;28;20025;-74
2022/08/14 03:46:12;;;;;;;5.45;4.40;;;;;;;;;;5030590;28;20021;-74
2022/08/14 03:48:38;;;;;;;6.22;4.72;;;;;;;;;;5030601;28;20074;-74
2022/08/14 03:51:07;;;;;;;5.00;4.50;;;;;;;;;;5030418;28;20029;-74
2022/08/14 03:53:35;;;;;;;5.07;4.68;;;;;;;;;;5030460;28;20169;-74
2022/08/14 03:56:00;;;;;;;5.20;4.70;;;;;;;;;;5030603;28;20033;-74
2022/08/14 03:58:27;;;;;;;5.03;4.60;;;;;;;;;;5030286;28;20268;-73
2022/08/14 04:00:53;;;;;;;5.10;4.60;;;;;;;;;;5028931;28;20028;-74
2022/08/14 04:03:18;;;;;;;5.07;4.45;;;;;;;;;;5030745;28;20029;-74
2022/08/14 04:05:44;;;;;;;4.95;4.55;;;;;;;;;;5030177;28;20380;-74
2022/08/14 04:08:10;;;;;;;4.88;4.43;;;;;;;;;;5030709;28;20059;-74
2022/08/14 04:10:37;;;;;;;4.85;4.45;;;;;;;;;;5030377;28;20029;-73
2022/08/14 04:13:04;;;;;;;4.78;4.38;;;;;;;;;;5030130;28;20022;-74
2022/08/14 04:15:31;;;;;;;4.88;4.40;;;;;;;;;;5030147;28;20032;-75
2022/08/14 04:18:01;;;;;;;5.72;4.78;;;;;;;;;;5030010;28;20029;-75
2022/08/14 04:20:27;;;;;;;4.85;4.40;;;;;;;;;;5029619;28;20057;-74
2022/08/14 04:22:52;;;;;;;5.78;4.40;;;;;;;;;;5029711;28;20510;-73
2022/08/14 04:25:18;;;;;;;6.55;4.18;;;;;;;;;;5029947;28;20048;-74
2022/08/14 04:27:44;;;;;;;4.97;4.18;;;;;;;;;;5029904;28;20057;-74
2022/08/14 04:30:10;;;;;;;6.22;4.40;;;;;;;;;;5029913;28;20117;-74
2022/08/14 04:32:36;;;;;;;4.90;4.40;;;;;;;;;;5030298;28;20373;-74
2022/08/14 04:35:02;;;;;;;4.72;4.32;;;;;;;;;;5030003;28;20028;-74
2022/08/14 04:45:40;;;;;;;4.75;4.35;;;;;;;;;;5029522;28;20087;-73
2022/08/14 04:48:14;;;;;;;4.63;4.22;;;;;;;;;;5029318;28;20025;-74
2022/08/14 04:50:50;;;;;;;6.22;4.72;;;;;;;;;;5029209;28;20057;-74
2022/08/14 04:53:27;;;;;;;6.10;4.70;;;;;;;;;;5029472;28;20041;-73
2022/08/14 04:55:53;;;;;;;6.90;4.70;;;;;;;;;;5029409;28;20034;-74
2022/08/14 04:58:23;;;;;;;4.90;4.50;;;;;;;;;;5029395;28;20553;-74
2022/08/14 05:00:50;;;;;;;6.65;4.45;;;;;;;;;;5028864;28;20079;-74
2022/08/14 05:03:19;;;;;;;6.00;4.68;;;;;;;;;;5029639;28;20029;-74
2022/08/14 05:05:48;;;;;;;6.07;4.50;;;;;;;;;;5029425;28;20055;-73
2022/08/14 05:08:14;;;;;;;4.85;4.45;;;;;;;;;;5029922;28;20040;-75
2022/08/14 05:10:42;;;;;;;4.90;4.50;;;;;;;;;;5030162;28;20033;-73
2022/08/14 05:13:08;;;;;;;5.78;4.97;;;;;;;;;;5029401;28;20043;-73
2022/08/14 05:15:37;;;;;;;6.65;5.10;;;;;;;;;;5029589;28;20040;-73
2022/08/14 05:18:14;;;;;;;5.60;5.00;;;;;;;;;;5029423;28;20033;-73
2022/08/14 05:20:45;;;;;;;5.90;5.15;;;;;;;;;;5029113;28;20391;-74
2022/08/14 05:23:13;;;;;;;5.35;4.95;;;;;;;;;;5029403;28;20031;-74
2022/08/14 05:25:38;;;;;;;5.80;5.20;;;;;;;;;;5029415;28;20051;-73
2022/08/14 05:28:17;;;;;;;5.85;5.25;;;;;;;;;;5029521;28;20041;-73
2022/08/14 05:30:45;;;;;;;5.43;4.93;;;;;;;;;;5028883;28;20041;-74
2022/08/14 05:33:11;;;;;;;6.75;4.90;;;;;;;;;;5029074;28;20506;-73
2022/08/14 05:35:36;;;;;;;5.35;4.70;;;;;;;;;;5028886;28;20025;-73
2022/08/14 05:38:13;;;;;;;6.25;5.10;;;;;;;;;;5028863;28;20032;-73
2022/08/14 05:40:42;;;;;;;5.80;5.00;;;;;;;;;;5028853;28;20037;-73
2022/08/14 05:43:08;;;;;;;6.88;5.63;;;;;;;;;;5029078;28;20021;-73
2022/08/14 05:45:34;;;;;;;10.50;9.35;;;;;;;;;;5028803;28;20045;-73
2022/08/14 05:48:04;;;;;;;11.80;10.48;;;;;;;;;;5029372;28;20021;-73
2022/08/14 05:50:30;;;;;;;5.85;5.25;;;;;;;;;;5028545;28;20057;-73
2022/08/14 05:52:57;;;;;;;6.22;5.63;;;;;;;;;;5029138;28;20391;-74
2022/08/14 05:55:23;;;;;;;5.70;4.95;;;;;;;;;;5029056;28;20025;-73
2022/08/14 05:57:52;;;;;;;5.78;5.28;;;;;;;;;;5029033;28;20025;-74
2022/08/14 06:00:20;;;;;;;7.03;5.13;;;;;;;;;;5028538;28;20024;-74
2022/08/14 06:02:45;;;;;;;5.43;4.93;;;;;;;;;;5029004;28;20056;-73
2022/08/14 06:05:10;;;;;;;5.57;5.07;;;;;;;;;;5028720;28;20484;-73
2022/08/14 06:07:37;;;;;;;6.03;5.50;;;;;;;;;;5028452;28;20033;-73
2022/08/14 06:10:05;;;;;;;5.93;5.30;;;;;;;;;;5028689;28;20038;-74
2022/08/14 06:12:30;;;;;;;6.07;5.47;;;;;;;;;;5028621;28;20028;-74
2022/08/14 06:14:55;;;;;;;5.63;5.13;;;;;;;;;;5028670;28;20586;-74
2022/08/14 06:17:21;;;;;;;5.55;5.05;;;;;;;;;;5028655;28;20388;-73
2022/08/14 06:19:46;;;;;;;6.25;5.68;;;;;;;;;;5028361;28;20425;-74
2022/08/14 06:22:11;;;;;;;5.72;5.22;;;;;;;;;;5028878;28;20036;-74
2022/08/14 06:24:37;;;;;;;5.38;4.60;;;;;;;;;;5030777;28;20441;-74
2022/08/14 06:27:03;;;;;;;5.53;4.90;;;;;;;;;;5032551;28;20036;-73
2022/08/14 06:29:28;;;;;;;5.55;5.05;;;;;;;;;;5032349;28;20067;-74
2022/08/14 06:31:54;;;;;;;7.22;4.63;;;;;;;;;;5032381;28;20029;-74
2022/08/14 06:34:19;;;;;;;5.80;5.28;;;;;;;;;;5032473;28;20025;-73
2022/08/14 06:36:44;;;;;;;5.78;5.28;;;;;;;;;;5032881;28;20092;-74
2022/08/14 06:39:10;;;;;;;7.65;4.95;;;;;;;;;;5032357;28;20468;-74
2022/08/14 06:41:35;;;;;;;5.75;4.85;;;;;;;;;;5032035;28;20025;-74
2022/08/14 06:44:00;;;;;;;7.03;5.38;;;;;;;;;;5032387;28;20087;-74
2022/08/14 06:46:28;;;;;;;6.43;5.47;;;;;;;;;;5032041;28;20391;-74
2022/08/14 06:48:53;;;;;;;5.88;5.38;;;;;;;;;;5032229;28;20406;-73
2022/08/14 06:51:19;;;;;;;7.32;5.40;;;;;;;;;;5031935;28;20034;-74
2022/08/14 06:53:45;;;;;;;5.88;5.28;;;;;;;;;;5032408;28;20037;-74
2022/08/14 06:56:12;;;;;;;5.53;4.88;;;;;;;;;;5032404;28;20499;-74
2022/08/14 06:58:37;;;;;;;6.13;5.13;;;;;;;;;;5032050;28;20040;-73
2022/08/14 07:06:31;;;;;;;5.78;4.72;;;;;;;;;;5031561;28;20044;-74
2022/08/14 07:08:56;;;;;;;5.45;4.90;;;;;;;;;;5031931;28;20395;-74
2022/08/14 07:11:21;;;;;;;5.50;5.00;;;;;;;;;;5031538;28;20033;-74
2022/08/14 07:13:47;;;;;;;7.32;5.80;;;;;;;;;;5032106;28;20072;-74
2022/08/14 07:16:12;;;;;;;5.88;5.38;;;;;;;;;;5031695;28;20021;-73
2022/08/14 07:18:38;;;;;;;5.13;4.70;;;;;;;;;;5032391;28;20103;-73
2022/08/14 07:21:05;;;;;;;5.57;5.07;;;;;;;;;;5031607;28;20104;-74
2022/08/14 07:23:31;;;;;;;5.40;4.90;;;;;;;;;;5031532;28;20032;-74
2022/08/14 07:25:57;;;;;;;6.75;5.03;;;;;;;;;;5013729;28;20025;-74
2022/08/14 07:28:33;;;;;;;5.50;4.85;;;;;;;;;;5031262;28;20037;-74
2022/08/14 07:31:01;;;;;;;4.80;4.40;;;;;;;;;;5030820;28;20153;-72
2022/08/14 07:33:30;;;;;;;10.48;4.47;;;;;;;;;;5030744;28;20025;-72
2022/08/14 07:35:59;;;;;;;5.78;4.45;;;;;;;;;;5030535;28;20029;-73
2022/08/14 07:38:26;;;;;;;4.72;4.28;;;;;;;;;;5030708;28;20036;-72
2022/08/14 07:40:52;;;;;;;4.72;4.20;;;;;;;;;;5030352;28;20048;-74
2022/08/14 07:43:17;;;;;;;4.25;3.85;;;;;;;;;;5030548;28;20427;-72
2022/08/14 07:45:43;;;;;;;4.45;3.65;;;;;;;;;;5030590;28;20029;-72
2022/08/14 07:48:09;;;;;;;7.13;5.38;;;;;;;;;;5030542;28;20029;-73
2022/08/14 07:50:35;;;;;;;5.18;4.68;;;;;;;;;;5030099;28;20100;-74
2022/08/14 07:53:00;;;;;;;5.45;4.45;;;;;;;;;;5030312;28;20104;-74
2022/08/14 07:55:26;;;;;;;5.47;4.97;;;;;;;;;;5030580;28;20483;-74
2022/08/14 07:57:51;;;;;;;4.90;4.50;;;;;;;;;;5031035;28;20056;-74
2022/08/14 08:00:19;;;;;;;5.60;4.55;;;;;;;;;;5030735;28;20026;-74
2022/08/14 08:02:46;;;;;;;8.13;4.82;;;;;;;;;;5030876;28;20179;-74
2022/08/14 08:05:13;;;;;;;5.05;4.65;;;;;;;;;;5030701;28;20140;-74
2022/08/14 08:07:40;;;;;;;5.07;4.53;;;;;;;;;;5031497;28;20037;-75
2022/08/14 08:10:52;;;;;;;5.00;4.60;;;;;;;;;;5032090;28;20068;-74
2022/08/14 08:12:55;;;;;;;7.50;4.50;;;;;;;;;;5015961;28;20132;-74
2022/08/14 08:15:22;;;;;;;4.80;4.30;;;;;;;;;;5030123;28;20025;-75
2022/08/14 08:17:47;;;;;;;5.68;4.10;;;;;;;;;;5030045;28;20440;-74
2022/08/14 08:20:18;;;;;;;4.50;4.10;;;;;;;;;;5029605;28;20036;-75
2022/08/14 08:22:44;;;;;;;;;;;;;;;;;;5030112;28;20022;-74
2022/08/14 08:25:10;;;;;;;3.25;3.00;;;;;;;;;;5029707;28;19913;-75
2022/08/14 08:27:37;;;;;;;6.15;3.38;;;;;;;;;;5029648;28;20026;-75
2022/08/14 08:30:08;;;;;;;4.68;3.30;;;;;;;;;;5011373;28;20116;-75
2022/08/14 08:32:38;;;;;;;3.92;3.30;;;;;;;;;;5029738;28;20049;-74
2022/08/14 08:35:04;;;;;;;6.05;3.40;;;;;;;;;;5029462;28;20036;-75
2022/08/14 08:37:34;;;;;;;3.70;3.40;;;;;;;;;;5029491;28;20336;-75
2022/08/14 08:39:59;;;;;;;3.87;3.37;;;;;;;;;;5011625;28;20026;-75
2022/08/14 08:42:25;;;;;;;3.57;3.20;;;;;;;;;;5029419;28;20036;-75
2022/08/14 08:44:54;;;;;;;6.13;3.80;;;;;;;;;;5029848;28;20029;-76
2022/08/14 08:47:19;;;;;;;5.18;3.28;;;;;;;;;;5028959;28;20029;-75
2022/08/14 08:49:44;;;;;;;3.73;3.07;;;;;;;;;;5028966;28;20033;-75
2022/08/14 08:52:10;;;;;;;3.80;2.87;;;;;;;;;;5029424;28;20296;-75
2022/08/14 08:54:37;;;;;;;3.50;3.20;;;;;;;;;;5029604;28;20103;-75
2022/08/14 08:57:10;;;;;;;4.18;2.90;;;;;;;;;;5025528;28;20120;-76
2022/08/14 08:59:35;;;;;;;3.65;2.95;;;;;;;;;;5029373;28;20065;-74
2022/08/14 09:02:07;;;;;;;5.63;3.23;;;;;;;;;;5029793;28;20053;-75
2022/08/14 09:04:43;;;;;;;2.83;2.63;;;;;;;;;;5029196;28;20037;-73
2022/08/14 09:07:09;;;;;;;2.88;2.63;;;;;;;;;;5028936;28;20025;-74
2022/08/14 09:09:49;;;;;;;3.20;2.60;;;;;;;;;;5028988;28;20183;-74
2022/08/14 09:12:16;;;;;;;2.75;2.55;;;;;;;;;;5029321;28;20463;-75
2022/08/14 09:14:42;;;;;;;2.55;2.35;;;;;;;;;;5028899;28;20465;-75
2022/08/14 09:17:07;;;;;;;3.03;2.72;;;;;;;;;;5029040;28;20120;-75
2022/08/14 09:19:35;;;;;;;3.85;2.90;;;;;;;;;;5028589;28;20116;-73
2022/08/14 09:22:02;;;;;;;3.13;2.90;;;;;;;;;;5028923;28;20081;-74
2022/08/14 09:24:28;;;;;;;3.35;3.05;;;;;;;;;;5028683;28;20025;-76
2022/08/14 09:26:53;;;;;;;3.60;3.30;;;;;;;;;;5028466;28;20041;-75
2022/08/14 09:29:19;;;;;;;4.25;2.72;;;;;;;;;;5028757;28;20033;-75
2022/08/14 09:31:48;;;;;;;3.35;3.15;;;;;;;;;;5028474;28;20026;-74
2022/08/14 09:34:28;;;;;;;4.90;2.83;;;;;;;;;;5028914;28;20112;-75
2022/08/14 09:37:06;;;;;;;;;;;;;;;;;;5028882;28;20458;-75
2022/08/14 09:39:39;;;;;;;3.60;2.70;;;;;;;;;;5028515;28;19924;-76
2022/08/14 09:42:32;;;;;;;2.10;1.92;;;;;;;;;;5028349;28;20068;-75
2022/08/14 09:45:17;;;;;;;2.58;2.38;;;;;;;;;;5028356;28;20378;-74
2022/08/14 09:47:47;;;;;;;2.55;2.17;;;;;;;;;;5028275;28;20026;-74
2022/08/14 09:50:28;;;;;;;2.55;2.30;;;;;;;;;;5027968;28;20461;-75
2022/08/14 09:53:02;;;;;;;1.88;1.77;;;;;;;;;;5028569;28;20033;-76
2022/08/14 09:55:34;;;;;;;2.35;2.15;;;;;;;;;;5028531;28;20387;-76
2022/08/14 09:58:17;;;;;;;2.70;2.50;;;;;;;;;;5027515;28;20538;-73
2022/08/14 10:00:44;;;;;;;2.28;2.08;;;;;;;;;;5027629;28;20072;-76
2022/08/14 10:03:10;;;;;;;3.35;2.08;;;;;;;;;;5035930;28;20079;-75
2022/08/14 10:05:36;;;;;;;3.47;1.90;;;;;;;;;;5048170;28;20033;-75
2022/08/14 10:08:03;;;;;;;5.85;2.10;;;;;;;;;;5048200;28;20058;-75
2022/08/14 10:10:37;;;;;;;2.30;2.10;;;;;;;;;;5048566;28;20060;-76
2022/08/14 10:13:05;;;;;;;2.05;1.85;;;;;;;;;;5048483;28;20386;-76
2022/08/14 10:15:32;;;;;;;1.85;1.67;;;;;;;;;;5048081;28;20028;-74
2022/08/14 10:18:12;;;;;;;1.70;1.60;;;;;;;;;;5048635;28;20025;-76
2022/08/14 10:20:50;;;;;;;1.50;1.40;;;;;;;;;;5030197;28;20029;-75
2022/08/14 10:23:19;;;;;;;4.03;1.70;;;;;;;;;;5048151;28;20025;-73
2022/08/14 10:25:49;;;;;;;1.80;1.70;;;;;;;;;;5048120;28;20479;-74
2022/08/14 10:28:15;;;;;;;1.80;1.70;;;;;;;;;;5048119;28;20040;-73
2022/08/14 10:30:42;;;;;;;2.38;1.67;;;;;;;;;;5047710;28;20028;-73
2022/08/14 10:33:08;;;;;;;2.35;1.70;;;;;;;;;;5048182;28;20471;-74
2022/08/14 10:35:42;;;;;;;2.70;2.00;;;;;;;;;;5047759;28;20029;-74
2022/08/14 10:38:09;;;;;;;2.10;1.88;;;;;;;;;;5047726;28;20379;-74
2022/08/14 10:40:35;;;;;;;3.28;1.90;;;;;;;;;;5047805;28;20082;-71
2022/08/14 10:43:01;;;;;;;3.15;1.85;;;;;;;;;;5048158;28;20028;-70
2022/08/14 10:45:32;;;;;;;2.90;1.80;;;;;;;;;;5047862;28;20109;-74
2022/08/14 10:47:57;;;;;;;2.65;1.90;;;;;;;;;;5047781;28;20040;-73
2022/08/14 10:50:34;;;;;;;2.72;1.83;;;;;;;;;;5047372;28;20025;-74
2022/08/14 10:53:02;;;;;;;2.33;1.90;;;;;;;;;;5047684;28;20056;-73
2022/08/14 10:55:38;;;;;;;1.88;1.65;;;;;;;;;;5047581;28;20021;-74
2022/08/14 10:58:11;;;;;;;2.80;2.00;;;;;;;;;;5047980;28;20032;-73
2022/08/14 11:00:39;;;;;;;3.58;1.90;;;;;;;;;;5047604;28;20070;-76
2022/08/14 11:03:12;;;;;;;2.40;2.20;;;;;;;;;;5047554;28;20057;-76
2022/08/14 11:05:42;;;;;;;2.33;2.00;;;;;;;;;;5029908;28;20025;-75
2022/08/14 11:08:09;;;;;;;3.75;2.05;;;;;;;;;;5047626;28;20367;-73
2022/08/14 11:10:54;;;;;;;2.50;2.13;;;;;;;;;;5049008;28;20483;-71
2022/08/14 11:13:26;;;;;;;2.35;2.03;;;;;;;;;;5051223;28;20540;-74
2022/08/14 11:15:54;;;;;;;4.53;2.10;;;;;;;;;;5051252;28;20021;-73
2022/08/14 11:18:21;;;;;;;2.42;1.95;;;;;;;;;;5051210;28;20143;-75
2022/08/14 11:20:54;;;;;;;3.03;2.00;;;;;;;;;;5050545;28;20040;-72
2022/08/14 11:23:34;;;;;;;2.47;2.10;;;;;;;;;;5050827;28;20029;-73
2022/08/14 11:26:01;;;;;;;2.13;1.90;;;;;;;;;;5050757;28;20025;-73
2022/08/14 11:28:31;;;;;;;3.63;2.05;;;;;;;;;;5050766;28;20036;-74
2022/08/14 11:30:58;;;;;;;4.05;1.98;;;;;;;;;;5050570;28;20028;-73
2022/08/14 11:33:28;;;;;;;3.08;2.00;;;;;;;;;;5050731;28;20040;-74
2022/08/14 11:35:53;;;;;;;2.05;1.92;;;;;;;;;;5050933;28;20112;-74
2022/08/14 11:38:20;;;;;;;2.17;1.98;;;;;;;;;;5050628;28;20486;-72
2022/08/14 11:40:46;;;;;;;6.07;2.20;;;;;;;;;;5050130;28;20024;-71
2022/08/14 11:43:11;;;;;;;2.60;2.40;;;;;;;;;;5050634;28;20071;-74
2022/08/14 11:45:39;;;;;;;2.37;2.23;;;;;;;;;;5050346;28;20052;-71
2022/08/14 11:48:19;;;;;;;2.47;2.25;;;;;;;;;;5050032;28;20281;-73
2022/08/14 11:50:45;;;;;;;2.70;2.50;;;;;;;;;;5049686;28;20028;-70
2022/08/14 11:53:29;;;;;;;2.58;2.38;;;;;;;;;;5050223;28;20032;-72
2022/08/14 11:56:03;;;;;;;2.42;2.22;;;;;;;;;;5050452;28;20372;-75
2022/08/14 11:58:31;;;;;;;4.97;2.40;;;;;;;;;;5050690;28;20020;-73
2022/08/14 12:00:59;;;;;;;4.97;2.30;;;;;;;;;;5049892;28;20387;-72
2022/08/14 12:03:36;;;;;;;2.60;2.30;;;;;;;;;;5050110;28;20039;-74
2022/08/14 12:06:04;;;;;;;2.83;2.00;;;;;;;;;;5049779;28;20059;-72
2022/08/14 12:08:34;;;;;;;3.40;2.30;;;;;;;;;;5050366;28;20021;-75
2022/08/14 12:10:59;;;;;;;3.45;2.30;;;;;;;;;;5049680;28;20041;-73
2022/08/14 12:13:31;;;;;;;2.83;2.35;;;;;;;;;;5049979;28;20063;-74
2022/08/14 12:15:57;;;;;;;;;;;;;;;;;;5050139;28;20032;-74
2022/08/14 12:18:31;;;;;;;2.40;2.20;;;;;;;;;;5049939;28;19917;-73
2022/08/14 12:20:56;;;;;;;2.83;2.50;;;;;;;;;;5048913;28;20043;-72
2022/08/14 12:23:25;;;;;;;2.45;2.25;;;;;;;;;;5048971;28;20028;-73
2022/08/14 12:26:04;;;;;;;3.25;2.28;;;;;;;;;;5049543;28;20021;-74
2022/08/14 12:28:29;;;;;;;3.45;2.30;;;;;;;;;;5049725;28;20441;-72
2022/08/14 12:30:54;;;;;;;3.33;2.00;;;;;;;;;;5049350;28;20033;-72
2022/08/14 12:33:29;;;;;;;2.63;2.42;;;;;;;;;;5049640;28;20300;-74
2022/08/14 12:35:57;;;;;;;3.95;2.60;;;;;;;;;;5049371;28;20029;-71
2022/08/14 12:38:40;;;;;;;3.35;2.58;;;;;;;;;;5050018;28;20132;-73
2022/08/14 12:41:15;;;;;;;3.13;2.58;;;;;;;;;;5049090;28;20033;-74
2022/08/14 12:43:50;;;;;;;3.33;3.03;;;;;;;;;;5049420;28;20103;-72
2022/08/14 12:46:33;;;;;;;3.85;2.70;;;;;;;;;;5049418;28;20028;-76
2022/08/14 12:49:05;;;;;;;2.75;2.45;;;;;;;;;;5049919;28;20033;-72
2022/08/14 12:51:31;;;;;;;3.72;2.70;;;;;;;;;;5048887;28;20450;-74
2022/08/14 12:53:57;;;;;;;3.03;2.60;;;;;;;;;;5049321;28;20385;-73
2022/08/14 12:56:24;;;;;;;3.85;2.80;;;;;;;;;;5048954;28;20228;-74
2022/08/14 12:58:57;;;;;;;3.13;2.63;;;;;;;;;;5049060;28;20028;-75
2022/08/14 13:01:26;;;;;;;3.00;2.70;;;;;;;;;;5048747;28;20032;-71
2022/08/14 13:04:04;;;;;;;4.55;2.72;;;;;;;;;;5049235;28;20449;-74
2022/08/14 13:06:30;;;;;;;6.20;2.65;;;;;;;;;;5048704;28;20079;-73
2022/08/14 13:08:55;;;;;;;3.00;2.80;;;;;;;;;;5048893;28;20033;-73
2022/08/14 13:11:23;;;;;;;2.83;2.63;;;;;;;;;;5048614;28;20411;-74
2022/08/14 13:13:49;;;;;;;3.03;2.72;;;;;;;;;;5048881;28;20025;-73
2022/08/14 13:16:16;;;;;;;3.55;2.50;;;;;;;;;;5048426;28;20055;-73
2022/08/14 13:18:43;;;;;;;2.85;2.65;;;;;;;;;;5027342;28;20030;-73
2022/08/14 13:21:12;;;;;;;3.17;2.90;;;;;;;;;;5025206;28;20467;-74
2022/08/14 13:23:42;;;;;;;3.90;2.60;;;;;;;;;;5025440;28;20488;-73
2022/08/14 13:26:08;;;;;;;2.72;2.33;;;;;;;;;;5026180;28;20088;-73
2022/08/14 13:28:37;;;;;;;2.83;2.55;;;;;;;;;;5025659;28;20484;-73
2022/08/14 13:31:04;;;;;;;3.13;2.70;;;;;;;;;;5024781;28;20044;-74
2022/08/14 13:33:31;;;;;;;2.67;2.40;;;;;;;;;;5025653;28;20430;-72
2022/08/14 13:35:57;;;;;;;4.43;2.35;;;;;;;;;;5024915;28;20372;-73
2022/08/14 13:38:24;;;;;;;2.83;2.60;;;;;;;;;;5027371;28;20032;-72
2022/08/14 13:40:54;;;;;;;2.72;2.40;;;;;;;;;;5028228;28;20080;-73
2022/08/14 13:43:20;;;;;;;3.10;2.42;;;;;;;;;;5027651;28;20025;-75
2022/08/14 13:45:46;;;;;;;3.08;2.53;;;;;;;;;;5027930;28;20033;-74
2022/08/14 13:48:11;;;;;;;3.58;2.22;;;;;;;;;;5028584;28;20052;-73
2022/08/14 13:50:40;;;;;;;2.75;2.53;;;;;;;;;;5027723;28;20060;-73
2022/08/14 13:53:08;;;;;;;2.70;2.50;;;;;;;;;;5028275;28;20361;-74
2022/08/14 13:55:34;;;;;;;5.20;2.80;;;;;;;;;;5028228;28;20040;-73
2022/08/14 13:58:01;;;;;;;2.97;2.40;;;;;;;;;;5028249;28;20021;-73
2022/08/14 14:00:26;;;;;;;3.10;2.50;;;;;;;;;;5027828;28;20030;-73
2022/08/14 14:02:55;;;;;;;2.70;2.50;;;;;;;;;;5028592;28;20033;-73
2022/08/14 14:05:20;;;;;;;2.85;2.50;;;;;;;;;;5028114;28;20034;-73
2022/08/14 14:07:49;;;;;;;2.75;2.40;;;;;;;;;;5028030;28;20052;-72
2022/08/14 14:10:19;;;;;;;2.63;2.40;;;;;;;;;;5028010;28;20068;-74
2022/08/14 14:12:45;;;;;;;2.50;2.30;;;;;;;;;;5028152;28;20025;-75
2022/08/14 14:15:13;;;;;;;2.42;2.10;;;;;;;;;;5028300;28;20033;-75
2022/08/14 14:17:40;;;;;;;2.10;1.90;;;;;;;;;;5028244;28;20036;-71
2022/08/14 14:20:10;;;;;;;2.67;2.20;;;;;;;;;;5027802;28;20025;-73
2022/08/14 14:22:39;;;;;;;2.47;2.25;;;;;;;;;;5028096;28;20052;-73
2022/08/14 14:25:05;;;;;;;2.67;1.92;;;;;;;;;;5027933;28;20402;-73
2022/08/14 14:27:32;;;;;;;2.22;2.00;;;;;;;;;;5028024;28;20021;-73
2022/08/14 14:30:00;;;;;;;2.42;2.22;;;;;;;;;;5027960;28;20024;-73
2022/08/14 14:32:30;;;;;;;2.33;2.13;;;;;;;;;;5028148;28;20105;-74
2022/08/14 14:35:00;;;;;;;2.33;2.13;;;;;;;;;;5027865;28;20034;-74
2022/08/14 14:37:26;;;;;;;2.42;2.08;;;;;;;;;;5028426;28;20025;-74
2022/08/14 14:39:52;;;;;;;2.38;1.95;;;;;;;;;;5027718;28;20064;-74
2022/08/14 14:42:18;;;;;;;3.22;2.28;;;;;;;;;;5027912;28;20078;-74
2022/08/14 14:44:45;;;;;;;2.47;2.20;;;;;;;;;;5028396;28;20475;-74
2022/08/14 14:47:14;;;;;;;5.85;1.95;;;;;;;;;;5031858;28;20390;-73
2022/08/14 14:49:41;;;;;;;2.35;1.80;;;;;;;;;;5031644;28;20067;-74
2022/08/14 14:52:08;;;;;;;2.85;2.10;;;;;;;;;;5031597;28;20529;-73
2022/08/14 14:54:37;;;;;;;3.42;2.10;;;;;;;;;;5031764;28;20025;-75
2022/08/14 14:57:03;;;;;;;2.30;2.10;;;;;;;;;;5031520;28;20099;-75
2022/08/14 14:59:30;;;;;;;2.63;2.28;;;;;;;;;;5031487;28;20029;-72
2022/08/14 15:02:01;;;;;;;2.53;2.33;;;;;;;;;;5031270;28;20021;-73
2022/08/14 15:04:26;;;;;;;2.70;1.90;;;;;;;;;;5031491;28;20033;-74